WetterOnline ( http://www.wetteronline.de )

Wetter aktuell Höxter

Aktuelles Wetter: Lügde-Paenbruch (260m)

6-stündlich | Neueste Meldungen
Ortszeit Temperatur Wetter
So, 24.03. 7:00 1.6° C bewölkt
So, 24.03. 1:00 5.9° C bedeckt
Sa, 23.03. 19:00 8.6° C bedeckt
Sa, 23.03. 13:00 6.0° C bedeckt
Sa, 23.03. 7:00 5.8° C wolkig
Sa, 23.03. 1:00 11.0° C leicht bewölkt
Fr, 22.03. 19:00 10.4° C leicht bewölkt
Fr, 22.03. 13:00 16.1° C fast wolkenlos
Ortszeit Temperatur Wetter
So, 24.03. 11:30 8.7° C leicht bewölkt
So, 24.03. 11:20 8.7° C leicht bewölkt
So, 24.03. 11:10 7.0° C leicht bewölkt
So, 24.03. 11:00 6.7° C bewölkt
So, 24.03. 10:50 6.7° C bewölkt
So, 24.03. 10:40 6.1° C wolkig
So, 24.03. 10:30 6.3° C leicht bewölkt
So, 24.03. 10:00 6.4° C fast wolkenlos
So, 24.03. 9:30 5.3° C wolkenlos
So, 24.03. 9:00 4.7° C fast wolkenlos
So, 24.03. 8:30 3.8° C fast wolkenlos
Ortszeit Relative Feuchte Sichtweite
So, 24.03. 7:00 96% 8 km
So, 24.03. 1:00 86% 20 km
Sa, 23.03. 19:00 84% 3.5 km
Sa, 23.03. 13:00 89% 2.8 km
Sa, 23.03. 7:00 88% 9 km
Sa, 23.03. 1:00 73% 12 km
Fr, 22.03. 19:00 75% 50 km
Fr, 22.03. 13:00 52% 24 km
Ortszeit Relative Feuchte Sichtweite
So, 24.03. 11:30 65% 12 km
So, 24.03. 11:20 65% -
So, 24.03. 11:10 74% -
So, 24.03. 11:00 78% 10 km
So, 24.03. 10:50 78% -
So, 24.03. 10:40 79% -
So, 24.03. 10:30 78% 14 km
So, 24.03. 10:00 76% 14 km
So, 24.03. 9:30 80% 12 km
So, 24.03. 9:00 85% 8 km
So, 24.03. 8:30 91% 6 km
Ortszeit Niederschlagsmenge Niederschlagsart
So, 24.03. 7:00 0.2 l/m2 in 12 Std. -
So, 24.03. 1:00 0.2 l/m2 in 6 Std. Regen
Sa, 23.03. 19:00 0.1 l/m2 in 12 Std. Regen
Sa, 23.03. 13:00 0.0 l/m2 in 6 Std. -
Sa, 23.03. 7:00 0.0 l/m2 in 12 Std. -
Sa, 23.03. 1:00 0.0 l/m2 in 6 Std. -
Fr, 22.03. 19:00 0.0 l/m2 in 12 Std. -
Fr, 22.03. 13:00 0.0 l/m2 in 6 Std. -
Ortszeit Niederschlagsmenge Niederschlagsart
So, 24.03. 11:30 0.0 l/m2 in 1 Std. -
So, 24.03. 11:20 keine Meldung -
So, 24.03. 11:10 keine Meldung -
So, 24.03. 11:00 0.0 l/m2 in 1 Std. -
So, 24.03. 10:50 keine Meldung -
So, 24.03. 10:40 keine Meldung -
So, 24.03. 10:30 0.0 l/m2 in 1 Std. -
So, 24.03. 10:00 0.0 l/m2 in 1 Std. -
So, 24.03. 9:30 0.0 l/m2 in 1 Std. -
So, 24.03. 9:00 0.0 l/m2 in 1 Std. -
So, 24.03. 8:30 0.0 l/m2 in 1 Std. -
Ortszeit Stärke Spitze Richtung
km/h Bft. km/h Grad Sektor
So, 24.03. 7:00 6 1 20 10° N
So, 24.03. 1:00 9 2 24 20° N
Sa, 23.03. 19:00 4 1 18 260° W
Sa, 23.03. 13:00 11 2 25 280° W
Sa, 23.03. 7:00 7 2 17 220° SW
Sa, 23.03. 1:00 4 1 11 220° SW
Fr, 22.03. 19:00 4 1 25 200° S
Fr, 22.03. 13:00 13 3 20 140° SO
Ortszeit Stärke Spitze Richtung
km/h Bft. km/h Grad Sektor
So, 24.03. 11:30 4 1 14 360° N
So, 24.03. 11:20 4 1 - 360° N
So, 24.03. 11:10 7 2 - 360° N
So, 24.03. 11:00 11 2 22 350° N
So, 24.03. 10:50 11 2 - 350° N
So, 24.03. 10:40 11 2 - 350° N
So, 24.03. 10:30 14 3 18 350° N
So, 24.03. 10:00 7 2 11 360° N
So, 24.03. 9:30 7 2 11 350° N
So, 24.03. 9:00 7 2 11 20° N
So, 24.03. 8:30 6 1 11 360° N
Ortszeit Untergrenze Bedeckung Gattung
total tief tief mittel hoch
So, 24.03. 7:00 150 m 8/8 7/8 - - -
So, 24.03. 1:00 300 m 8/8 8/8 - - -
Sa, 23.03. 19:00 450 m 8/8 8/8 - - -
Sa, 23.03. 13:00 210 m 8/8 8/8 - - -
Sa, 23.03. 7:00 9000 m 8/8 0/8 - - -
Sa, 23.03. 1:00 10500 m 6/8 0/8 - - -
Fr, 22.03. 19:00 12000 m 5/8 0/8 - - -
Fr, 22.03. 13:00 10500 m 1/8 0/8 - - -
Ortszeit Bedeckungsgrad in Achtel und Wolkenuntergrenze
So, 24.03. 11:30 1(930m)
So, 24.03. 11:20 1(930m) 2(10500m)
So, 24.03. 11:10 1(990m) 3(1320m)
So, 24.03. 11:00 2(990m) 7(1290m)
So, 24.03. 10:50 2(990m) 7(1290m)
So, 24.03. 10:40 4(990m) 6(1290m)
So, 24.03. 10:30 3(960m) 3(1260m) 5(10500m)
So, 24.03. 10:00 1(10500m)
So, 24.03. 9:30 keine Wolken
So, 24.03. 9:00 1(8400m)
So, 24.03. 8:30 2(8700m)
Ortszeit Luftdruck NN (hPa) Tendenz (hPa in 3 Std.)
So, 24.03. 7:00 1029 - 0,9
So, 24.03. 1:00 1031 - 0,7
Sa, 23.03. 19:00 1030 + 0,2
Sa, 23.03. 13:00 1031 + 1,3
Sa, 23.03. 7:00 1028 + 1,1
Sa, 23.03. 1:00 1026 - 1,0
Fr, 22.03. 19:00 1028 - 1,1
Fr, 22.03. 13:00 1030 - 1,5
Ortszeit Luftdruck NN (hPa) Tendenz (hPa in 3 Std.)
So, 24.03. 11:30 1027 - 1,1
So, 24.03. 11:20 1027 keine Meldung
So, 24.03. 11:10 1027 keine Meldung
So, 24.03. 11:00 1027 - 1,0
So, 24.03. 10:50 1027 keine Meldung
So, 24.03. 10:40 1028 keine Meldung
So, 24.03. 10:30 1028 - 0,8
So, 24.03. 10:00 1028 - 0,9
So, 24.03. 9:30 1028 - 0,9
So, 24.03. 9:00 1028 - 0,6
So, 24.03. 8:30 1028 - 0,7
Ortszeit Schneehöhe (cm)
So, 24.03. 7:00 0
So, 24.03. 1:00 0
Sa, 23.03. 19:00 0
Sa, 23.03. 13:00 0
Sa, 23.03. 7:00 0
Sa, 23.03. 1:00 0
Fr, 22.03. 19:00 0
Fr, 22.03. 13:00 0
Ortszeit Schneehöhe (cm)
So, 24.03. 11:30 0
So, 24.03. 11:20 0
So, 24.03. 11:10 0
So, 24.03. 11:00 0
So, 24.03. 10:50 0
So, 24.03. 10:40 0
So, 24.03. 10:30 0
So, 24.03. 10:00 0
So, 24.03. 9:30 0
So, 24.03. 9:00 0
So, 24.03. 8:30 0
Link zu dieser Seite / Seite empfehlen

Das Wetter in ...